首页
METAR-TAF:

METAR-TAF

机场 :

梅肯, 喬治亞, 美国

纬度: 32-41-16N, 经度: 083-39-16W, 海拔: 107米

当前天气观测

该预报发布于1小时和6分钟前的04:53 UTC
静风
温度 23°C
湿度 78%
气压 1018 hPa
能見度: 16.1公里
天空无云

METAR: KMCN 270453Z AUTO 00000KT 10SM CLR 23/19 A3007 RMK AO2 SLP176 T02330189 403780194

时间: 01:59 (05:59 UTC)

预报

该预报发布于37分钟前的05:22 UTC
预报有效从27日的 06点(UTC)到 28日的 06点(UTC)
风速节,风向
能見度: 10公里
天空无云
从 27日的 1500点(UTC)
风速7节,风向西转西北
能見度: 10公里
少量云层高于6000英尺
散云层高于25000英尺
从 27日的 1800点(UTC)
风速8节,风向西转西北
能見度: 10公里
散云层高于7000英尺
散云层高于25000英尺
从 28日的 0100点(UTC)
风速4节,风向多变
能見度: 10公里
散云层高于25000英尺

TAF: KMCN 270522Z 2706/2806 00000KT P6SM SKC FM271500 30007KT P6SM FEW060 SCT250 FM271800 29008KT P6SM SCT070 SCT250 FM280100 VRB04KT P6SM SCT250

超过4000个机场的气象观测和天气预报(METAR&TAF报告)。

可查询的气象台以黄色和红色小点在地图上表示。

将鼠标移到小点上方,可查看气象台名称。

然后点击查看天气观测和预报。

如需切换地图:点击带黑十字的绿色按钮放大地图;点击带横线的绿色按钮缩小地图;或者点击绿色箭头查看邻近地区的地图。


METAR-TAF: